createdAt,value
2023-04-02T00:44:10.308Z,3.60
2023-04-02T00:49:19.760Z,3.08
2023-04-02T00:54:31.920Z,3.63
2023-04-02T00:59:44.432Z,3.45
2023-04-02T01:04:57.942Z,3.30
2023-04-02T01:10:23.721Z,3.80
2023-04-02T01:15:29.202Z,4.90
2023-04-02T01:21:07.574Z,4.00
2023-04-02T01:26:15.331Z,4.70
2023-04-02T01:31:12.619Z,4.28
2023-04-02T01:36:35.756Z,5.63
2023-04-02T01:41:50.594Z,5.30
2023-04-02T01:46:56.434Z,5.00
2023-04-02T01:51:56.858Z,8.00
2023-04-02T01:56:55.022Z,4.82
2023-04-02T02:02:05.239Z,5.20
2023-04-02T02:07:04.321Z,5.30
2023-04-02T02:12:00.420Z,5.85
2023-04-02T02:16:58.132Z,4.25
2023-04-02T02:21:55.907Z,3.85
2023-04-02T02:27:06.201Z,3.75
2023-04-02T02:32:05.589Z,4.18
2023-04-02T02:37:08.098Z,4.50
2023-04-02T02:42:09.944Z,4.00
2023-04-02T02:47:13.577Z,4.05
2023-04-02T02:52:20.338Z,3.75
2023-04-02T02:57:36.474Z,4.75
2023-04-02T03:02:43.749Z,4.70
2023-04-02T03:07:41.964Z,3.80
2023-04-02T03:12:51.711Z,3.92
2023-04-02T03:18:02.249Z,4.60
2023-04-02T03:23:07.483Z,4.00
2023-04-02T03:28:06.371Z,4.32
2023-04-02T03:33:05.411Z,3.60
2023-04-02T03:38:06.248Z,4.07
2023-04-02T03:43:07.265Z,3.72
2023-04-02T03:48:09.564Z,4.07
2023-04-02T03:53:04.275Z,5.38
2023-04-02T03:58:08.212Z,4.07
2023-04-02T04:03:16.265Z,3.90
2023-04-02T04:08:17.309Z,3.50
2023-04-02T04:13:16.627Z,3.80
2023-04-02T04:18:29.606Z,3.92
2023-04-02T04:23:30.537Z,5.28
2023-04-02T04:28:33.171Z,4.45
2023-04-02T04:33:43.694Z,4.45
2023-04-02T04:39:17.123Z,3.80
2023-04-02T04:44:24.355Z,4.20
2023-04-02T04:49:31.722Z,4.25
2023-04-02T04:54:28.349Z,4.72
2023-04-02T04:59:31.020Z,5.32
2023-04-02T05:04:37.843Z,6.65
2023-04-02T05:09:44.891Z,5.22
2023-04-02T05:14:50.942Z,4.53
2023-04-02T05:19:59.022Z,5.43
2023-04-02T05:25:26.218Z,5.78
2023-04-02T05:30:46.839Z,5.05
2023-04-02T05:36:28.135Z,3.83
2023-04-02T05:41:40.311Z,3.80
2023-04-02T05:47:13.820Z,4.07
2023-04-02T05:52:29.694Z,8.57
2023-04-02T05:57:44.575Z,7.45
2023-04-02T06:22:18.985Z,6.18
2023-04-02T06:27:35.814Z,6.53
2023-04-02T06:33:10.117Z,5.43
2023-04-02T06:43:33.783Z,7.60
2023-04-02T06:48:51.576Z,6.55
2023-04-02T06:54:05.663Z,6.65
2023-04-02T06:59:09.793Z,7.13
2023-04-02T07:09:43.722Z,5.60
2023-04-02T07:14:42.239Z,8.15
2023-04-02T07:20:02.866Z,4.55
2023-04-02T07:25:45.507Z,5.40
2023-04-02T07:36:54.743Z,4.22
2023-04-02T07:42:16.218Z,5.03
2023-04-02T07:47:18.965Z,3.33
2023-04-02T08:04:02.254Z,3.45
2023-04-02T08:09:32.067Z,7.55
2023-04-02T08:14:50.695Z,6.75
2023-04-02T08:20:29.681Z,4.72
2023-04-02T08:25:31.786Z,4.67
2023-04-02T08:30:45.082Z,3.72
2023-04-02T08:35:45.090Z,6.05
2023-04-02T08:46:14.842Z,4.45
2023-04-02T08:57:33.232Z,4.35
2023-04-02T09:02:39.829Z,5.03
2023-04-02T09:07:34.856Z,3.28
2023-04-02T09:12:33.425Z,4.05
2023-04-02T09:17:50.546Z,3.60
2023-04-02T09:22:55.514Z,3.80
2023-04-02T09:28:27.833Z,3.65
2023-04-02T09:33:43.285Z,4.65
2023-04-02T09:39:19.882Z,3.83
2023-04-02T09:44:30.680Z,4.50
2023-04-02T09:50:05.311Z,3.30
2023-04-02T09:55:25.826Z,3.30
2023-04-02T10:06:18.434Z,3.40
2023-04-02T10:11:25.399Z,3.65
2023-04-02T10:16:27.837Z,3.38
2023-04-02T10:21:30.724Z,3.17
2023-04-02T10:26:46.997Z,4.10
2023-04-02T10:32:00.521Z,3.50
2023-04-02T10:37:24.801Z,4.55
2023-04-02T10:42:27.977Z,2.80
2023-04-02T10:47:41.299Z,3.30
2023-04-02T10:52:43.019Z,4.10
2023-04-02T10:57:42.381Z,2.80
2023-04-02T11:02:45.520Z,3.28
2023-04-02T11:07:54.179Z,3.20
2023-04-02T11:12:58.008Z,3.20
2023-04-02T11:17:55.172Z,3.53
2023-04-02T11:23:16.269Z,2.60
2023-04-02T11:28:34.160Z,2.47
2023-04-02T11:34:21.326Z,2.15
2023-04-02T11:39:58.462Z,2.40
2023-04-02T11:45:30.311Z,2.10
2023-04-02T11:51:18.856Z,2.30
2023-04-02T11:56:49.401Z,1.98
2023-04-02T12:02:38.183Z,1.98
2023-04-02T12:08:13.695Z,2.00
2023-04-02T12:14:42.430Z,2.25
2023-04-02T12:19:56.280Z,2.50
2023-04-02T12:26:00.015Z,2.63
2023-04-02T12:31:30.925Z,2.20
2023-04-02T12:36:42.167Z,2.50
2023-04-02T12:42:03.149Z,2.53
2023-04-02T12:47:17.726Z,2.55
2023-04-02T12:52:34.903Z,2.80
2023-04-02T12:57:46.355Z,2.40
2023-04-02T13:27:19.605Z,2.35
2023-04-02T13:32:56.831Z,3.03
2023-04-02T13:51:06.339Z,3.63
2023-04-02T13:57:08.846Z,3.65
2023-04-02T14:02:51.562Z,1.60
2023-04-02T14:08:18.778Z,1.60
2023-04-02T14:13:54.095Z,2.70
2023-04-02T14:19:14.052Z,2.70
2023-04-02T14:24:51.772Z,2.67
2023-04-02T14:30:11.683Z,6.60
2023-04-02T14:35:46.606Z,5.40
2023-04-02T14:40:52.637Z,2.50
2023-04-02T14:46:18.410Z,1.90
2023-04-02T14:51:36.522Z,7.07
2023-04-02T14:56:40.885Z,4.88
2023-04-02T15:01:39.620Z,3.03
2023-04-02T15:06:41.593Z,2.70
2023-04-02T15:11:39.381Z,2.58
2023-04-02T15:16:39.081Z,2.60
2023-04-02T15:22:30.957Z,2.03
2023-04-02T15:27:51.450Z,2.20
2023-04-02T15:32:50.275Z,2.33
2023-04-02T15:38:50.776Z,2.60
2023-04-02T15:43:58.514Z,2.67
2023-04-02T15:49:22.810Z,2.50
2023-04-02T15:54:34.488Z,2.85
2023-04-02T16:00:07.577Z,2.83
2023-04-02T16:05:13.898Z,2.38
2023-04-02T16:10:41.133Z,2.95
2023-04-02T16:15:42.703Z,2.80
2023-04-02T16:20:42.008Z,2.60
2023-04-02T16:25:57.987Z,2.70
2023-04-02T16:31:07.666Z,3.00
2023-04-02T16:54:29.435Z,10.57
2023-04-02T16:59:35.754Z,13.02
2023-04-02T17:04:58.756Z,11.25
2023-04-02T17:10:04.225Z,8.85
2023-04-02T17:15:24.870Z,9.55
2023-04-02T17:20:36.988Z,12.35
2023-04-02T17:25:48.549Z,11.90
2023-04-02T17:30:50.374Z,11.55
2023-04-02T17:36:22.197Z,9.95
2023-04-02T17:47:11.869Z,9.80
2023-04-02T17:52:19.958Z,10.20
2023-04-02T17:57:53.320Z,7.82
2023-04-02T18:03:28.003Z,7.82
2023-04-02T18:08:40.214Z,20.67
2023-04-02T18:13:45.399Z,10.70
2023-04-02T18:19:06.220Z,10.20
2023-04-02T18:24:24.096Z,13.13
2023-04-02T18:29:35.186Z,14.98
2023-04-02T18:34:45.435Z,12.68
2023-04-02T18:39:57.146Z,13.02
2023-04-02T18:45:18.078Z,9.85
2023-04-02T18:50:54.338Z,14.43
2023-04-02T18:56:12.056Z,23.20
2023-04-02T19:01:09.272Z,21.08
2023-04-02T19:06:23.622Z,18.45
2023-04-02T19:11:28.917Z,20.45
2023-04-02T19:17:14.368Z,14.82
2023-04-02T19:22:33.761Z,26.23
2023-04-02T19:27:39.652Z,30.33
2023-04-02T19:32:47.188Z,22.27
2023-04-02T19:38:06.822Z,22.52
2023-04-02T19:43:11.666Z,22.08
2023-04-02T19:48:28.707Z,17.73
2023-04-02T19:53:33.188Z,18.52
2023-04-02T19:58:40.216Z,16.75
2023-04-02T20:03:35.405Z,18.30
2023-04-02T20:08:43.798Z,18.40
2023-04-02T20:13:41.596Z,19.73
2023-04-02T20:18:38.536Z,19.50
2023-04-02T20:23:36.430Z,16.95
2023-04-02T20:28:38.031Z,14.95
2023-04-02T20:33:40.195Z,16.05
2023-04-02T20:38:36.565Z,11.93
2023-04-02T20:43:31.237Z,8.15
2023-04-02T20:48:39.729Z,5.65
2023-04-02T20:53:38.004Z,5.68
2023-04-02T20:58:36.901Z,4.38
2023-04-02T21:03:32.325Z,4.15
2023-04-02T21:08:26.723Z,3.38
2023-04-02T21:13:25.826Z,5.03
2023-04-02T21:18:19.321Z,3.65
2023-04-02T21:23:13.618Z,4.13
2023-04-02T21:28:07.639Z,5.28
2023-04-02T21:33:03.880Z,4.90
2023-04-02T21:37:57.532Z,4.60
2023-04-02T21:42:52.512Z,5.18
2023-04-02T21:47:47.911Z,5.90
2023-04-02T21:52:43.006Z,3.67
2023-04-02T21:57:37.170Z,3.63
2023-04-02T22:02:31.094Z,3.92
2023-04-02T22:07:24.838Z,4.10
2023-04-02T22:12:22.438Z,4.15
2023-04-02T22:17:24.453Z,3.42
2023-04-02T22:22:18.039Z,4.10
2023-04-02T22:27:12.730Z,3.55
2023-04-02T22:32:11.894Z,2.90
2023-04-02T22:37:37.691Z,3.63
2023-04-02T22:42:31.370Z,2.75
2023-04-02T22:47:26.405Z,3.25
2023-04-02T22:52:19.831Z,2.60
2023-04-02T22:57:16.138Z,2.95
2023-04-02T23:02:10.766Z,3.20
2023-04-02T23:07:08.466Z,3.13
2023-04-02T23:12:03.233Z,3.20
2023-04-02T23:16:56.922Z,4.90
2023-04-02T23:21:50.610Z,3.78
2023-04-02T23:26:45.468Z,2.70
2023-04-02T23:31:39.375Z,2.80
2023-04-02T23:36:35.713Z,3.28
2023-04-02T23:41:31.030Z,3.22
2023-04-02T23:46:27.045Z,3.60
2023-04-02T23:51:22.942Z,2.55
2023-04-02T23:56:16.436Z,2.95
